createdAt,value
2019-04-11T00:00:35.451Z,52.13
2019-04-11T00:03:04.946Z,52.19
2019-04-11T00:05:33.400Z,51.85
2019-04-11T00:08:01.899Z,52.04
2019-04-11T00:10:31.306Z,52.09
2019-04-11T00:12:59.747Z,51.93
2019-04-11T00:15:28.784Z,51.71
2019-04-11T00:17:58.483Z,51.81
2019-04-11T00:20:27.038Z,51.92
2019-04-11T00:22:55.350Z,51.96
2019-04-11T00:25:23.687Z,51.92
2019-04-11T00:27:53.123Z,51.85
2019-04-11T00:30:21.636Z,51.82
2019-04-11T00:32:50.042Z,51.89
2019-04-11T00:35:19.619Z,51.74
2019-04-11T00:37:47.990Z,51.82
2019-04-11T00:40:17.484Z,51.59
2019-04-11T00:42:47.120Z,51.59
2019-04-11T00:45:15.898Z,51.51
2019-04-11T00:47:44.992Z,51.38
2019-04-11T00:50:13.528Z,51.66
2019-04-11T00:52:41.836Z,51.55
2019-04-11T00:55:11.176Z,51.46
2019-04-11T00:57:39.594Z,51.47
2019-04-11T01:00:09.049Z,51.72
2019-04-11T01:02:37.773Z,51.75
2019-04-11T01:05:07.549Z,51.90
2019-04-11T01:07:36.048Z,52.02
2019-04-11T01:10:06.737Z,52.04
2019-04-11T01:12:35.126Z,52.24
2019-04-11T01:15:05.005Z,52.38
2019-04-11T01:17:33.662Z,52.34
2019-04-11T01:20:02.933Z,52.27
2019-04-11T01:22:31.958Z,52.13
2019-04-11T01:25:00.555Z,52.13
2019-04-11T01:27:29.866Z,52.08
2019-04-11T01:29:58.303Z,52.04
2019-04-11T01:32:26.617Z,52.04
2019-04-11T01:34:55.106Z,52.01
2019-04-11T01:37:23.931Z,51.94
2019-04-11T01:39:59.460Z,51.92
2019-04-11T01:42:28.741Z,51.68
2019-04-11T01:44:57.137Z,51.86
2019-04-11T01:47:43.223Z,51.88
2019-04-11T01:50:13.251Z,51.90
2019-04-11T01:52:42.488Z,52.14
2019-04-11T01:55:10.930Z,52.46
2019-04-11T01:57:40.241Z,52.41
2019-04-11T02:00:12.221Z,52.54
2019-04-11T02:02:46.436Z,52.48
2019-04-11T02:05:16.749Z,52.18
2019-04-11T02:07:45.151Z,52.36
2019-04-11T02:10:14.715Z,52.18
2019-04-11T02:12:43.601Z,52.24
2019-04-11T02:15:12.352Z,52.42
2019-04-11T02:17:41.139Z,52.66
2019-04-11T02:20:09.829Z,52.66
2019-04-11T02:22:48.790Z,52.55
2019-04-11T02:25:35.260Z,52.67
2019-04-11T02:28:06.485Z,52.54
2019-04-11T02:30:38.708Z,52.69
2019-04-11T02:33:07.683Z,52.76
2019-04-11T02:35:37.398Z,52.88
2019-04-11T02:38:07.547Z,52.84
2019-04-11T02:40:36.809Z,52.93
2019-04-11T02:43:07.123Z,52.94
2019-04-11T02:45:45.307Z,53.04
2019-04-11T02:48:07.825Z,53.16
2019-04-11T02:50:37.156Z,53.07
2019-04-11T02:53:07.229Z,53.11
2019-04-11T02:55:37.821Z,53.12
2019-04-11T02:58:07.855Z,53.23
2019-04-11T03:00:37.634Z,53.34
2019-04-11T03:03:07.954Z,53.33
2019-04-11T03:05:37.486Z,53.29
2019-04-11T03:08:11.148Z,53.53
2019-04-11T03:10:37.770Z,53.43
2019-04-11T03:13:08.243Z,53.54
2019-04-11T03:15:48.882Z,53.50
2019-04-11T03:18:09.522Z,53.58
2019-04-11T03:20:47.332Z,53.64
2019-04-11T03:23:09.870Z,53.55
2019-04-11T03:25:38.515Z,53.69
2019-04-11T03:28:12.109Z,53.70
2019-04-11T03:30:54.186Z,53.83
2019-04-11T03:38:30.897Z,53.87
2019-04-11T03:40:57.031Z,54.06
2019-04-11T03:43:20.859Z,54.09
2019-04-11T03:46:01.822Z,54.08
2019-04-11T03:48:23.660Z,54.36
2019-04-11T03:50:39.479Z,54.28
2019-04-11T03:53:10.934Z,54.53
2019-04-11T03:55:39.147Z,54.57
2019-04-11T03:58:08.553Z,54.65
2019-04-11T04:00:41.219Z,54.74
2019-04-11T04:03:09.083Z,54.70
2019-04-11T04:05:39.101Z,54.71
2019-04-11T04:08:08.966Z,54.79
2019-04-11T04:10:41.552Z,54.78
2019-04-11T04:13:15.368Z,54.78
2019-04-11T04:16:02.764Z,54.86
2019-04-11T04:18:34.106Z,55.27
2019-04-11T04:21:10.784Z,54.81
2019-04-11T04:23:41.047Z,54.80
2019-04-11T04:26:11.579Z,55.07
2019-04-11T04:28:40.804Z,55.07
2019-04-11T04:31:11.394Z,55.51
2019-04-11T04:33:40.295Z,55.51
2019-04-11T04:36:10.773Z,55.35
2019-04-11T04:38:41.194Z,54.91
2019-04-11T04:41:19.720Z,54.91
2019-04-11T04:43:41.141Z,55.41
2019-04-11T04:46:25.937Z,55.24
2019-04-11T04:48:41.032Z,55.47
2019-04-11T04:51:12.032Z,55.47
2019-04-11T04:53:41.072Z,55.57
2019-04-11T04:56:10.994Z,55.73
2019-04-11T04:58:39.978Z,55.68
2019-04-11T05:01:09.934Z,56.03
2019-04-11T05:03:40.275Z,56.03
2019-04-11T05:06:10.131Z,55.98
2019-04-11T05:08:39.024Z,55.98
2019-04-11T05:11:07.765Z,56.08
2019-04-11T05:13:36.714Z,55.99
2019-04-11T05:16:16.391Z,55.96
2019-04-11T05:18:36.472Z,55.93
2019-04-11T05:21:05.346Z,55.93
2019-04-11T05:23:33.907Z,55.96
2019-04-11T05:26:03.456Z,56.27
2019-04-11T05:28:31.956Z,55.82
2019-04-11T05:31:00.467Z,56.08
2019-04-11T05:33:29.399Z,55.95
2019-04-11T05:35:58.539Z,55.71
2019-04-11T05:38:27.332Z,55.53
2019-04-11T05:40:56.657Z,55.45
2019-04-11T05:43:29.292Z,55.19
2019-04-11T05:45:56.635Z,55.04
2019-04-11T05:48:27.108Z,55.03
2019-04-11T05:50:56.205Z,55.16
2019-04-11T05:53:24.993Z,54.76
2019-04-11T05:55:53.547Z,54.27
2019-04-11T05:58:21.987Z,53.45
2019-04-11T06:01:01.440Z,52.88
2019-04-11T06:03:30.262Z,51.95
2019-04-11T06:06:12.822Z,50.96
2019-04-11T06:08:42.031Z,49.98
2019-04-11T06:11:16.953Z,49.55
2019-04-11T06:13:44.740Z,48.90
2019-04-11T06:16:14.589Z,48.41
2019-04-11T06:18:48.134Z,47.03
2019-04-11T06:21:35.886Z,45.87
2019-04-11T06:24:12.156Z,45.47
2019-04-11T06:26:45.573Z,44.25
2019-04-11T06:29:24.351Z,44.05
2019-04-11T06:32:05.651Z,43.59
2019-04-11T06:34:51.270Z,43.21
2019-04-11T06:37:29.903Z,43.36
2019-04-11T06:40:02.608Z,42.79
2019-04-11T06:42:39.269Z,41.68
2019-04-11T06:45:21.871Z,40.44
2019-04-11T06:47:59.007Z,39.35
2019-04-11T06:50:33.350Z,38.19
2019-04-11T06:53:02.321Z,37.48
2019-04-11T06:55:48.475Z,36.07
2019-04-11T06:58:21.521Z,35.04
2019-04-11T07:00:53.531Z,34.28
2019-04-11T07:03:30.841Z,34.42
2019-04-11T07:06:01.316Z,34.25
2019-04-11T07:08:32.117Z,34.21
2019-04-11T07:11:08.057Z,33.64
2019-04-11T07:13:49.934Z,33.25
2019-04-11T07:16:18.612Z,33.42
2019-04-11T07:19:05.858Z,32.63
2019-04-11T07:21:35.329Z,32.32
2019-04-11T07:24:24.679Z,32.21
2019-04-11T07:26:54.797Z,31.63
2019-04-11T07:29:31.540Z,31.03
2019-04-11T07:32:04.983Z,30.25
2019-04-11T07:34:36.256Z,30.61
2019-04-11T07:37:23.528Z,29.98
2019-04-11T07:39:53.921Z,29.83
2019-04-11T07:42:26.600Z,29.89
2019-04-11T07:44:57.617Z,29.58
2019-04-11T07:47:33.477Z,28.87
2019-04-11T07:50:04.171Z,28.73
2019-04-11T07:52:34.507Z,29.46
2019-04-11T07:55:03.057Z,29.46
2019-04-11T07:57:36.191Z,28.96
2019-04-11T08:00:13.043Z,29.08
2019-04-11T08:03:01.942Z,29.33
2019-04-11T08:05:44.642Z,29.55
2019-04-11T08:08:17.630Z,29.34
2019-04-11T08:10:56.691Z,28.94
2019-04-11T08:13:43.288Z,29.00
2019-04-11T08:16:30.787Z,28.53
2019-04-11T08:19:17.643Z,28.88
2019-04-11T08:22:04.190Z,28.98
2019-04-11T08:24:36.692Z,29.44
2019-04-11T08:27:23.237Z,28.77
2019-04-11T08:29:53.067Z,28.99
2019-04-11T08:32:38.155Z,29.40
2019-04-11T08:35:24.349Z,28.77
2019-04-11T08:38:00.956Z,28.52
2019-04-11T08:40:51.283Z,28.07
2019-04-11T08:43:27.408Z,28.21
2019-04-11T08:46:00.597Z,27.99
2019-04-11T08:48:30.830Z,28.43
2019-04-11T08:51:00.989Z,28.45
2019-04-11T08:53:33.730Z,28.31
2019-04-11T08:56:04.036Z,28.89
2019-04-11T08:58:44.861Z,28.72
2019-04-11T09:01:18.098Z,28.66
2019-04-11T09:03:59.779Z,28.18
2019-04-11T09:06:20.827Z,28.76
2019-04-11T09:08:56.880Z,28.74
2019-04-11T09:11:30.840Z,28.94
2019-04-11T09:14:16.855Z,28.56
2019-04-11T09:16:47.917Z,28.24
2019-04-11T09:19:30.669Z,28.61
2019-04-11T09:22:13.099Z,29.61
2019-04-11T09:24:43.321Z,29.41
2019-04-11T09:27:30.980Z,28.90
2019-04-11T09:30:19.093Z,28.88
2019-04-11T09:33:05.229Z,29.55
2019-04-11T09:35:37.873Z,29.39
2019-04-11T09:38:10.460Z,29.56
2019-04-11T09:40:47.899Z,29.25
2019-04-11T09:43:18.076Z,29.45
2019-04-11T09:46:00.361Z,29.30
2019-04-11T09:48:46.713Z,29.17
2019-04-11T09:51:19.411Z,29.19
2019-04-11T09:53:50.694Z,29.10
2019-04-11T09:56:20.850Z,28.90
2019-04-11T09:58:51.878Z,28.57
2019-04-11T10:01:30.945Z,28.43
2019-04-11T10:03:59.522Z,28.84
2019-04-11T10:06:46.523Z,29.99
2019-04-11T10:09:15.608Z,30.17
2019-04-11T10:11:52.571Z,30.55
2019-04-11T10:14:21.736Z,30.16
2019-04-11T10:17:08.688Z,30.16
2019-04-11T10:19:38.269Z,29.98
2019-04-11T10:22:15.107Z,29.40
2019-04-11T10:25:01.020Z,30.15
2019-04-11T10:27:47.574Z,30.33
2019-04-11T10:30:33.963Z,29.84
2019-04-11T10:33:16.981Z,29.60
2019-04-11T10:35:58.963Z,29.59
2019-04-11T10:38:28.669Z,29.71
2019-04-11T10:40:58.931Z,29.16
2019-04-11T10:43:27.213Z,29.36
2019-04-11T10:46:00.793Z,29.45
2019-04-11T10:48:38.792Z,29.11
2019-04-11T10:51:03.070Z,28.73
2019-04-11T10:53:31.445Z,28.67
2019-04-11T10:56:18.072Z,28.90
2019-04-11T10:58:49.021Z,29.45
2019-04-11T11:01:25.607Z,29.51
2019-04-11T11:04:09.481Z,29.83
2019-04-11T11:06:37.970Z,29.56
2019-04-11T11:09:20.268Z,29.55
2019-04-11T11:12:06.713Z,29.56
2019-04-11T11:14:49.042Z,29.87
2019-04-11T11:17:43.501Z,29.87
2019-04-11T11:20:03.612Z,29.98
2019-04-11T11:22:23.812Z,29.61
2019-04-11T11:25:13.577Z,29.85
2019-04-11T11:27:41.839Z,30.14
2019-04-11T11:30:21.168Z,30.24
2019-04-11T11:32:49.726Z,29.85
2019-04-11T11:35:24.081Z,29.90
2019-04-11T11:37:50.236Z,30.01
2019-04-11T11:40:41.272Z,29.64
2019-04-11T11:43:12.909Z,29.66
2019-04-11T11:45:59.340Z,29.59
2019-04-11T11:48:33.410Z,29.38
2019-04-11T11:51:06.800Z,29.46
2019-04-11T11:53:42.843Z,29.92
2019-04-11T11:56:12.336Z,30.09
2019-04-11T11:58:48.769Z,30.56
2019-04-11T12:01:26.057Z,30.18
2019-04-11T12:04:00.146Z,30.14
2019-04-11T12:06:27.131Z,29.91
2019-04-11T12:09:09.918Z,29.75
2019-04-11T12:11:40.037Z,29.74
2019-04-11T12:14:25.610Z,29.87
2019-04-11T12:17:04.820Z,29.61
2019-04-11T12:19:49.324Z,29.29
2019-04-11T12:22:12.425Z,29.32
2019-04-11T12:24:58.455Z,28.92
2019-04-11T12:27:32.889Z,29.12
2019-04-11T12:30:23.882Z,29.02
2019-04-11T12:32:55.786Z,29.11
2019-04-11T12:35:38.130Z,29.22
2019-04-11T12:38:13.830Z,29.49
2019-04-11T12:40:46.934Z,29.46
2019-04-11T12:43:16.979Z,30.06
2019-04-11T12:45:49.432Z,30.50
2019-04-11T12:48:18.195Z,30.35
2019-04-11T12:50:54.363Z,30.77
2019-04-11T12:53:22.815Z,31.27
2019-04-11T12:56:08.963Z,30.53
2019-04-11T12:58:41.811Z,30.40
2019-04-11T13:01:26.945Z,30.48
2019-04-11T13:04:08.525Z,30.85
2019-04-11T13:06:38.510Z,30.54
2019-04-11T13:09:19.686Z,30.61
2019-04-11T13:11:49.730Z,30.52
2019-04-11T13:14:28.488Z,30.27
2019-04-11T13:17:15.342Z,29.98
2019-04-11T13:19:45.302Z,30.61
2019-04-11T13:22:18.041Z,30.83
2019-04-11T13:24:48.051Z,31.09
2019-04-11T13:27:18.417Z,31.02
2019-04-11T13:30:04.723Z,30.82
2019-04-11T13:32:37.819Z,31.39
2019-04-11T13:35:25.298Z,30.49
2019-04-11T13:38:07.078Z,30.83
2019-04-11T13:40:46.147Z,31.27
2019-04-11T13:43:31.572Z,31.24
2019-04-11T13:46:07.278Z,31.61
2019-04-11T13:48:53.608Z,31.72
2019-04-11T13:51:32.775Z,31.39
2019-04-11T13:54:19.486Z,31.82
2019-04-11T13:56:58.722Z,31.68
2019-04-11T13:59:34.587Z,31.44
2019-04-11T14:02:17.660Z,31.42
2019-04-11T14:04:54.577Z,31.22
2019-04-11T14:07:27.736Z,30.84
2019-04-11T14:10:01.686Z,30.82
2019-04-11T14:12:30.084Z,30.69
2019-04-11T14:15:00.219Z,30.73
2019-04-11T14:17:48.477Z,30.79
2019-04-11T14:20:30.140Z,31.16
2019-04-11T14:23:05.446Z,31.21
2019-04-11T14:25:35.908Z,31.28
2019-04-11T14:28:08.161Z,30.87
2019-04-11T14:30:41.050Z,31.47
2019-04-11T14:33:09.426Z,31.49
2019-04-11T14:35:42.570Z,32.03
2019-04-11T14:38:15.359Z,31.93
2019-04-11T14:41:02.205Z,31.69
2019-04-11T14:43:32.258Z,31.70
2019-04-11T14:46:18.445Z,31.65
2019-04-11T14:48:51.710Z,31.27
2019-04-11T14:51:31.593Z,31.86
2019-04-11T14:54:18.191Z,31.54
2019-04-11T14:57:03.830Z,31.07
2019-04-11T14:59:36.894Z,31.26
2019-04-11T15:02:19.065Z,31.29
2019-04-11T15:05:07.316Z,31.33
2019-04-11T15:07:39.823Z,31.24
2019-04-11T15:10:21.839Z,31.38
2019-04-11T15:12:51.139Z,31.40
2019-04-11T15:15:30.128Z,31.51
2019-04-11T15:18:02.961Z,31.42
2019-04-11T15:20:34.225Z,31.43
2019-04-11T15:23:06.972Z,31.34
2019-04-11T15:25:37.899Z,31.06
2019-04-11T15:28:12.367Z,31.05
2019-04-11T15:30:39.962Z,31.05
2019-04-11T15:33:15.600Z,31.19
2019-04-11T15:35:45.688Z,31.19
2019-04-11T15:38:17.398Z,31.20
2019-04-11T15:40:46.586Z,31.77
2019-04-11T15:43:28.657Z,31.92
2019-04-11T15:46:01.182Z,32.11
2019-04-11T15:48:42.025Z,31.91
2019-04-11T15:51:26.883Z,32.22
2019-04-11T15:54:15.084Z,32.29
2019-04-11T15:56:54.541Z,32.23
2019-04-11T15:59:24.642Z,32.43
2019-04-11T16:02:10.825Z,32.37
2019-04-11T16:04:46.795Z,32.50
2019-04-11T16:07:25.876Z,32.64
2019-04-11T16:09:58.551Z,32.14
2019-04-11T16:12:37.263Z,32.50
2019-04-11T16:15:08.779Z,32.39
2019-04-11T16:17:57.783Z,32.40
2019-04-11T16:20:25.428Z,32.78
2019-04-11T16:22:57.820Z,32.95
2019-04-11T16:25:29.031Z,33.01
2019-04-11T16:28:08.119Z,33.14
2019-04-11T16:30:39.710Z,33.06
2019-04-11T16:33:13.496Z,32.76
2019-04-11T16:35:48.930Z,33.09
2019-04-11T16:38:23.554Z,33.19
2019-04-11T16:41:02.354Z,33.32
2019-04-11T16:43:32.108Z,33.29
2019-04-11T16:46:08.040Z,33.04
2019-04-11T16:48:36.366Z,33.25
2019-04-11T16:51:06.036Z,33.00
2019-04-11T16:53:34.529Z,33.00
2019-04-11T16:56:03.025Z,33.08
2019-04-11T16:58:33.702Z,33.26
2019-04-11T17:01:02.049Z,33.11
2019-04-11T17:03:31.605Z,33.21
2019-04-11T17:06:01.571Z,33.28
2019-04-11T17:08:34.488Z,33.42
2019-04-11T17:11:04.739Z,33.57
2019-04-11T17:13:33.164Z,33.67
2019-04-11T17:16:02.727Z,33.54
2019-04-11T17:18:34.121Z,33.65
2019-04-11T17:21:01.429Z,33.77
2019-04-11T17:23:30.385Z,33.58
2019-04-11T17:25:58.857Z,33.81
2019-04-11T17:28:27.422Z,33.74
2019-04-11T17:30:55.999Z,34.05
2019-04-11T17:33:28.602Z,34.10
2019-04-11T17:35:56.184Z,33.91
2019-04-11T17:38:26.239Z,33.87
2019-04-11T17:40:54.750Z,33.86
2019-04-11T17:43:23.233Z,33.95
2019-04-11T17:45:51.524Z,34.10
2019-04-11T17:48:19.942Z,34.21
2019-04-11T17:50:48.395Z,34.25
2019-04-11T17:53:16.990Z,34.32
2019-04-11T17:55:45.386Z,34.54
2019-04-11T17:58:13.886Z,34.42
2019-04-11T18:00:55.574Z,34.58
2019-04-11T18:03:24.020Z,34.55
2019-04-11T18:05:52.507Z,34.52
2019-04-11T18:08:20.974Z,34.61
2019-04-11T18:10:49.236Z,34.79
2019-04-11T18:13:17.834Z,34.81
2019-04-11T18:15:46.153Z,34.88
2019-04-11T18:18:14.546Z,35.02
2019-04-11T18:20:43.071Z,34.89
2019-04-11T18:23:11.648Z,34.88
2019-04-11T18:25:40.131Z,34.93
2019-04-11T18:28:08.652Z,35.14
2019-04-11T18:30:37.153Z,35.19
2019-04-11T18:33:05.732Z,35.31
2019-04-11T18:35:34.251Z,35.39
2019-04-11T18:38:05.950Z,35.49
2019-04-11T18:40:34.420Z,35.57
2019-04-11T18:43:03.672Z,35.70
2019-04-11T18:45:32.225Z,35.79
2019-04-11T18:48:01.606Z,35.70
2019-04-11T18:50:30.244Z,35.75
2019-04-11T18:52:59.637Z,35.92
2019-04-11T18:55:28.696Z,36.07
2019-04-11T18:57:57.142Z,36.15
2019-04-11T19:00:28.879Z,36.43
2019-04-11T19:02:58.622Z,36.48
2019-04-11T19:05:28.928Z,36.77
2019-04-11T19:08:02.385Z,36.75
2019-04-11T19:10:30.809Z,36.85
2019-04-11T19:12:59.661Z,36.97
2019-04-11T19:15:28.736Z,37.12
2019-04-11T19:18:06.071Z,37.01
2019-04-11T19:20:27.425Z,36.91
2019-04-11T19:22:56.029Z,36.75
2019-04-11T19:25:24.628Z,36.77
2019-04-11T19:27:54.325Z,36.93
2019-04-11T19:30:23.953Z,37.02
2019-04-11T19:32:53.392Z,37.12
2019-04-11T19:35:21.823Z,37.25
2019-04-11T19:37:50.178Z,37.33
2019-04-11T19:40:18.612Z,37.23
2019-04-11T19:42:49.255Z,37.12
2019-04-11T19:45:19.550Z,37.02
2019-04-11T19:47:51.496Z,37.08
2019-04-11T19:50:17.837Z,37.01
2019-04-11T19:52:46.225Z,36.94
2019-04-11T19:55:16.411Z,37.19
2019-04-11T19:57:44.848Z,37.13
2019-04-11T20:00:14.343Z,37.22
2019-04-11T20:02:42.706Z,37.32
2019-04-11T20:05:12.379Z,37.17
2019-04-11T20:07:40.814Z,37.23
2019-04-11T20:10:09.365Z,37.19
2019-04-11T20:12:37.701Z,37.34
2019-04-11T20:15:08.655Z,37.55
2019-04-11T20:17:44.174Z,37.56
2019-04-11T20:20:08.076Z,37.65
2019-04-11T20:22:39.280Z,37.77
2019-04-11T20:25:07.295Z,37.73
2019-04-11T20:27:35.668Z,37.59
2019-04-11T20:30:05.878Z,37.79
2019-04-11T20:32:34.238Z,37.96
2019-04-11T20:35:02.604Z,37.97
2019-04-11T20:37:39.268Z,37.89
2019-04-11T20:40:02.799Z,37.97
2019-04-11T20:42:31.230Z,38.13
2019-04-11T20:44:59.543Z,38.14
2019-04-11T20:47:29.608Z,38.21
2019-04-11T20:49:57.946Z,38.25
2019-04-11T20:52:26.270Z,38.06
2019-04-11T20:54:54.646Z,38.41
2019-04-11T20:57:25.986Z,38.18
2019-04-11T20:59:53.224Z,38.32
2019-04-11T21:02:21.543Z,38.39
2019-04-11T21:04:49.862Z,38.19
2019-04-11T21:07:18.294Z,38.35
2019-04-11T21:09:46.706Z,38.42
2019-04-11T21:12:16.636Z,38.36
2019-04-11T21:14:45.272Z,38.50
2019-04-11T21:17:13.608Z,38.58
2019-04-11T21:19:41.982Z,38.83
2019-04-11T21:22:10.455Z,38.97
2019-04-11T21:24:38.782Z,38.89
2019-04-11T21:27:07.266Z,38.94
2019-04-11T21:29:35.584Z,38.91
2019-04-11T21:32:04.015Z,38.98
2019-04-11T21:34:32.934Z,39.10
2019-04-11T21:37:02.558Z,39.03
2019-04-11T21:39:31.050Z,39.10
2019-04-11T21:41:59.455Z,39.16
2019-04-11T21:44:27.827Z,39.28
2019-04-11T21:46:56.411Z,39.25
2019-04-11T21:49:24.734Z,39.53
2019-04-11T21:51:53.040Z,39.54
2019-04-11T21:54:21.457Z,39.70
2019-04-11T21:56:50.392Z,39.83
2019-04-11T21:59:20.402Z,39.70
2019-04-11T22:01:49.046Z,39.69
2019-04-11T22:04:17.921Z,39.88
2019-04-11T22:06:46.248Z,39.97
2019-04-11T22:09:14.702Z,39.98
2019-04-11T22:11:43.086Z,40.34
2019-04-11T22:14:11.914Z,40.53
2019-04-11T22:16:44.058Z,40.55
2019-04-11T22:19:13.957Z,40.84
2019-04-11T22:21:45.004Z,40.94
2019-04-11T22:24:10.953Z,41.11
2019-04-11T22:26:39.349Z,41.13
2019-04-11T22:29:07.792Z,41.33
2019-04-11T22:31:36.074Z,41.28
2019-04-11T22:34:15.328Z,41.20
2019-04-11T22:36:43.672Z,41.06
2019-04-11T22:39:12.061Z,41.01
2019-04-11T22:41:40.516Z,41.20
2019-04-11T22:44:09.154Z,41.26
2019-04-11T22:46:38.294Z,41.61
2019-04-11T22:49:08.758Z,41.55
2019-04-11T22:51:36.780Z,41.76
2019-04-11T22:54:05.164Z,41.58
2019-04-11T22:56:33.549Z,41.87
2019-04-11T22:59:01.882Z,41.67
2019-04-11T23:01:30.324Z,41.81
2019-04-11T23:04:00.398Z,41.69
2019-04-11T23:06:28.825Z,41.60
2019-04-11T23:08:57.431Z,41.75
2019-04-11T23:11:25.745Z,41.84
2019-04-11T23:13:54.231Z,42.00
2019-04-11T23:16:22.797Z,42.25
2019-04-11T23:18:51.151Z,42.37
2019-04-11T23:21:19.657Z,42.47
2019-04-11T23:23:48.067Z,42.59
2019-04-11T23:26:17.422Z,42.56
2019-04-11T23:28:46.715Z,42.89
2019-04-11T23:31:19.748Z,42.93
2019-04-11T23:33:46.223Z,42.72
2019-04-11T23:36:14.599Z,42.87
2019-04-11T23:38:42.889Z,43.24
2019-04-11T23:41:12.436Z,43.24
2019-04-11T23:43:40.918Z,43.31
2019-04-11T23:46:09.233Z,43.42
2019-04-11T23:48:37.597Z,43.52
2019-04-11T23:51:06.007Z,43.47
2019-04-11T23:53:34.285Z,43.83
2019-04-11T23:56:02.866Z,43.91
2019-04-11T23:58:32.047Z,44.26
